createdAt,value
2022-11-02T00:01:21.036Z,1.92
2022-11-02T00:03:48.445Z,2.10
2022-11-02T00:06:15.016Z,2.20
2022-11-02T00:08:41.654Z,1.95
2022-11-02T00:11:08.505Z,2.00
2022-11-02T00:13:35.076Z,2.15
2022-11-02T00:16:04.619Z,2.40
2022-11-02T00:20:59.477Z,2.25
2022-11-02T00:23:26.040Z,1.88
2022-11-02T00:25:54.291Z,2.00
2022-11-02T00:28:20.950Z,2.25
2022-11-02T00:30:47.731Z,2.25
2022-11-02T00:33:14.402Z,2.08
2022-11-02T00:35:42.186Z,2.55
2022-11-02T00:38:08.911Z,2.08
2022-11-02T00:40:36.158Z,1.60
2022-11-02T00:43:03.294Z,1.80
2022-11-02T00:45:29.866Z,1.80
2022-11-02T00:47:56.405Z,1.65
2022-11-02T00:50:22.974Z,1.70
2022-11-02T00:52:49.580Z,1.88
2022-11-02T00:55:18.026Z,2.05
2022-11-02T00:57:45.020Z,2.10
2022-11-02T01:00:12.499Z,2.08
2022-11-02T01:02:39.601Z,2.30
2022-11-02T01:05:07.843Z,1.98
2022-11-02T01:07:35.160Z,2.28
2022-11-02T01:10:02.147Z,2.00
2022-11-02T01:12:28.743Z,1.77
2022-11-02T01:14:55.304Z,2.55
2022-11-02T01:17:21.909Z,2.25
2022-11-02T01:19:50.469Z,1.75
2022-11-02T01:22:17.906Z,2.60
2022-11-02T01:24:44.462Z,2.15
2022-11-02T01:27:11.046Z,1.77
2022-11-02T01:29:37.593Z,2.35
2022-11-02T01:32:04.327Z,2.15
2022-11-02T01:34:31.027Z,2.17
2022-11-02T01:36:57.639Z,1.75
2022-11-02T01:39:24.179Z,2.20
2022-11-02T01:41:52.582Z,2.30
2022-11-02T01:44:37.486Z,2.13
2022-11-02T01:47:35.506Z,2.28
2022-11-02T01:50:27.686Z,2.90
2022-11-02T01:52:54.528Z,2.33
2022-11-02T01:55:29.381Z,2.33
2022-11-02T01:58:01.527Z,1.95
2022-11-02T02:00:28.325Z,3.03
2022-11-02T02:03:02.264Z,2.35
2022-11-02T02:05:30.797Z,2.25
2022-11-02T02:07:58.005Z,1.77
2022-11-02T02:10:24.803Z,2.17
2022-11-02T02:12:51.603Z,2.45
2022-11-02T02:15:25.277Z,2.05
2022-11-02T02:18:16.408Z,1.77
2022-11-02T02:21:02.750Z,2.15
2022-11-02T02:23:48.149Z,2.20
2022-11-02T02:26:21.669Z,1.60
2022-11-02T02:29:34.462Z,2.15
2022-11-02T02:32:13.023Z,2.53
2022-11-02T02:34:53.533Z,3.30
2022-11-02T02:37:27.925Z,1.98
2022-11-02T02:40:11.216Z,1.95
2022-11-02T02:42:47.281Z,2.10
2022-11-02T02:45:33.093Z,1.63
2022-11-02T02:48:14.651Z,1.80
2022-11-02T02:50:49.055Z,1.70
2022-11-02T02:53:23.241Z,2.33
2022-11-02T02:55:51.785Z,1.50
2022-11-02T02:58:22.966Z,2.33
2022-11-02T03:00:49.805Z,1.90
2022-11-02T03:03:20.762Z,1.70
2022-11-02T03:06:26.371Z,2.00
2022-11-02T03:09:34.413Z,2.20
2022-11-02T03:12:36.491Z,2.53
2022-11-02T03:15:16.699Z,2.20
2022-11-02T03:17:55.770Z,2.15
2022-11-02T03:20:30.710Z,2.08
2022-11-02T03:23:19.098Z,2.10
2022-11-02T03:26:04.442Z,1.90
2022-11-02T03:28:56.758Z,2.10
2022-11-02T03:31:47.265Z,2.80
2022-11-02T03:34:16.494Z,2.20
2022-11-02T03:36:57.109Z,1.92
2022-11-02T03:39:38.138Z,2.25
2022-11-02T03:42:07.291Z,2.17
2022-11-02T03:44:39.197Z,1.80
2022-11-02T03:47:11.360Z,1.80
2022-11-02T03:49:42.031Z,1.98
2022-11-02T03:52:14.144Z,2.30
2022-11-02T03:54:51.909Z,2.05
2022-11-02T03:57:23.778Z,2.10
2022-11-02T03:59:50.871Z,2.38
2022-11-02T04:02:19.667Z,2.00
2022-11-02T04:07:24.926Z,2.17
2022-11-02T04:09:51.638Z,2.55
2022-11-02T04:12:36.974Z,2.00
2022-11-02T04:15:03.802Z,1.98
2022-11-02T04:17:49.123Z,1.98
2022-11-02T04:20:16.752Z,2.05
2022-11-02T04:23:02.259Z,3.17
2022-11-02T04:25:28.898Z,2.50
2022-11-02T04:28:22.068Z,2.17
2022-11-02T04:31:02.251Z,2.03
2022-11-02T04:33:35.050Z,1.77
2022-11-02T04:36:08.958Z,1.70
2022-11-02T04:38:40.462Z,1.92
2022-11-02T04:41:39.025Z,2.53
2022-11-02T04:44:11.136Z,2.10
2022-11-02T04:46:39.595Z,2.20
2022-11-02T04:49:08.533Z,2.22
2022-11-02T04:51:36.605Z,2.05
2022-11-02T04:54:03.951Z,1.95
2022-11-02T04:56:32.063Z,1.85
2022-11-02T04:59:00.363Z,2.40
2022-11-02T05:01:29.893Z,2.58
2022-11-02T05:03:59.033Z,1.90
2022-11-02T05:06:27.603Z,1.92
2022-11-02T05:08:55.482Z,2.22
2022-11-02T05:11:23.312Z,1.73
2022-11-02T05:13:50.731Z,1.80
2022-11-02T05:16:18.801Z,1.83
2022-11-02T05:18:46.453Z,1.75
2022-11-02T05:21:15.420Z,2.90
2022-11-02T05:23:42.177Z,1.98
2022-11-02T05:26:12.031Z,2.20
2022-11-02T05:28:42.406Z,1.58
2022-11-02T05:31:09.146Z,2.03
2022-11-02T05:33:36.810Z,2.05
2022-11-02T05:36:11.032Z,2.78
2022-11-02T05:41:12.456Z,2.08
2022-11-02T05:43:40.329Z,2.13
2022-11-02T05:46:10.543Z,2.35
2022-11-02T05:48:37.059Z,2.03
2022-11-02T05:51:04.539Z,2.65
2022-11-02T05:53:33.731Z,2.17
2022-11-02T05:56:01.981Z,1.80
2022-11-02T05:58:29.522Z,2.20
2022-11-02T06:01:02.744Z,2.47
2022-11-02T06:03:30.177Z,3.25
2022-11-02T06:05:58.084Z,1.77
2022-11-02T06:08:24.945Z,2.08
2022-11-02T06:10:51.670Z,1.73
2022-11-02T06:13:18.301Z,2.63
2022-11-02T06:15:44.930Z,2.10
2022-11-02T06:18:11.591Z,2.22
2022-11-02T06:20:38.216Z,2.03
2022-11-02T06:23:04.870Z,1.70
2022-11-02T06:25:31.706Z,2.05
2022-11-02T06:27:58.536Z,2.15
2022-11-02T06:30:29.057Z,1.67
2022-11-02T06:32:55.765Z,2.42
2022-11-02T06:35:23.035Z,3.20
2022-11-02T06:37:49.659Z,2.38
2022-11-02T06:40:18.334Z,1.83
2022-11-02T06:42:56.727Z,1.55
2022-11-02T06:45:33.711Z,1.70
2022-11-02T06:48:00.332Z,1.98
2022-11-02T06:50:26.904Z,2.38
2022-11-02T06:52:53.425Z,2.22
2022-11-02T06:55:20.094Z,1.95
2022-11-02T06:57:46.637Z,2.35
2022-11-02T07:00:20.917Z,2.17
2022-11-02T07:03:07.963Z,1.67
2022-11-02T07:05:36.950Z,1.65
2022-11-02T07:08:04.370Z,1.65
2022-11-02T07:10:31.540Z,2.10
2022-11-02T07:12:58.734Z,2.08
2022-11-02T07:15:26.507Z,2.20
2022-11-02T07:17:53.521Z,2.70
2022-11-02T07:20:20.549Z,3.25
2022-11-02T07:22:58.047Z,2.90
2022-11-02T07:25:27.108Z,2.72
2022-11-02T07:27:54.944Z,2.67
2022-11-02T07:30:21.561Z,2.58
2022-11-02T07:32:48.546Z,2.25
2022-11-02T07:35:16.429Z,2.25
2022-11-02T07:37:43.104Z,2.22
2022-11-02T07:40:11.826Z,1.95
2022-11-02T07:42:46.487Z,2.13
2022-11-02T07:45:15.704Z,2.00
2022-11-02T07:47:44.307Z,2.03
2022-11-02T07:50:12.469Z,2.10
2022-11-02T07:52:52.785Z,2.25
2022-11-02T07:55:21.745Z,2.67
2022-11-02T07:57:57.712Z,2.13
2022-11-02T08:00:26.246Z,1.95
2022-11-02T08:03:01.002Z,1.93
2022-11-02T08:05:29.417Z,2.33
2022-11-02T08:08:04.639Z,2.38
2022-11-02T08:10:35.494Z,2.30
2022-11-02T08:13:12.281Z,1.60
2022-11-02T08:15:38.939Z,1.63
2022-11-02T08:18:12.947Z,1.75
2022-11-02T08:20:39.576Z,1.85
2022-11-02T08:23:07.739Z,1.95
2022-11-02T08:25:35.386Z,1.83
2022-11-02T08:28:02.365Z,1.92
2022-11-02T08:30:30.541Z,1.75
2022-11-02T08:33:04.526Z,2.10
2022-11-02T08:35:31.294Z,1.65
2022-11-02T08:37:59.867Z,2.22
2022-11-02T08:40:27.149Z,1.77
2022-11-02T08:43:04.602Z,1.90
2022-11-02T08:46:08.514Z,1.80
2022-11-02T08:48:19.148Z,2.03
2022-11-02T08:50:45.715Z,1.77
2022-11-02T08:53:12.267Z,1.73
2022-11-02T08:55:38.875Z,1.92
2022-11-02T08:58:05.905Z,1.88
2022-11-02T09:00:34.405Z,1.60
2022-11-02T09:03:02.255Z,2.22
2022-11-02T09:05:30.586Z,1.58
2022-11-02T09:08:01.669Z,1.95
2022-11-02T09:10:30.611Z,1.73
2022-11-02T09:12:59.649Z,1.55
2022-11-02T09:15:27.462Z,1.95
2022-11-02T09:17:54.324Z,2.10
2022-11-02T09:20:22.362Z,1.58
2022-11-02T09:22:49.627Z,1.85
2022-11-02T09:25:16.648Z,1.40
2022-11-02T09:27:43.602Z,1.95
2022-11-02T09:30:12.625Z,1.70
2022-11-02T09:32:39.732Z,1.70
2022-11-02T09:35:09.816Z,1.35
2022-11-02T09:37:36.921Z,1.70
2022-11-02T09:40:05.292Z,1.67
2022-11-02T09:42:54.823Z,1.67
2022-11-02T09:48:15.757Z,1.70
2022-11-02T09:50:54.272Z,1.90
2022-11-02T09:53:37.730Z,1.73
2022-11-02T09:56:05.551Z,1.95
2022-11-02T09:58:40.458Z,2.22
2022-11-02T10:01:28.364Z,1.88
2022-11-02T10:04:30.859Z,2.13
2022-11-02T10:07:35.256Z,2.05
2022-11-02T10:10:15.644Z,1.75
2022-11-02T10:13:01.282Z,1.90
2022-11-02T10:15:45.020Z,1.50
2022-11-02T10:18:24.589Z,1.83
2022-11-02T10:23:35.629Z,1.90
2022-11-02T10:26:03.082Z,2.00
2022-11-02T10:28:35.993Z,2.28
2022-11-02T10:31:15.852Z,1.70
2022-11-02T10:33:42.482Z,1.75
2022-11-02T10:36:18.244Z,1.80
2022-11-02T10:39:04.473Z,1.40
2022-11-02T10:41:44.298Z,1.77
2022-11-02T10:44:34.599Z,1.85
2022-11-02T10:47:33.381Z,1.60
2022-11-02T10:50:33.719Z,1.70
2022-11-02T10:53:20.421Z,1.80
2022-11-02T10:55:57.909Z,1.52
2022-11-02T10:58:27.942Z,1.52
2022-11-02T11:01:11.954Z,1.20
2022-11-02T11:04:05.181Z,1.83
2022-11-02T11:06:36.743Z,1.33
2022-11-02T11:09:07.400Z,1.80
2022-11-02T11:11:37.718Z,1.88
2022-11-02T11:19:53.057Z,1.60
2022-11-02T11:22:30.198Z,1.83
2022-11-02T11:25:12.071Z,1.48
2022-11-02T11:27:47.579Z,1.48
2022-11-02T11:33:19.358Z,2.50
2022-11-02T11:35:49.533Z,1.70
2022-11-02T11:38:19.933Z,2.03
2022-11-02T11:40:53.615Z,1.80
2022-11-02T11:43:25.948Z,1.58
2022-11-02T11:46:06.817Z,1.35
2022-11-02T11:48:46.392Z,1.70
2022-11-02T11:51:31.198Z,1.60
2022-11-02T11:54:19.313Z,1.42
2022-11-02T11:56:47.240Z,1.27
2022-11-02T11:59:24.338Z,1.60
2022-11-02T12:02:01.515Z,1.48
2022-11-02T12:04:28.320Z,1.70
2022-11-02T12:07:39.126Z,1.60
2022-11-02T12:10:25.972Z,1.77
2022-11-02T12:13:20.261Z,1.50
2022-11-02T12:16:07.051Z,1.60
2022-11-02T12:21:53.942Z,1.42
2022-11-02T12:24:29.593Z,1.90
2022-11-02T12:27:11.257Z,1.52
2022-11-02T12:29:59.820Z,1.50
2022-11-02T12:35:50.379Z,1.42
2022-11-02T12:38:42.840Z,1.60
2022-11-02T12:41:12.720Z,1.40
2022-11-02T12:43:49.414Z,2.00
2022-11-02T12:46:20.520Z,1.80
2022-11-02T12:48:58.131Z,1.83
2022-11-02T12:51:30.566Z,1.50
2022-11-02T12:54:41.518Z,1.35
2022-11-02T12:57:19.802Z,1.48
2022-11-02T12:59:57.417Z,1.25
2022-11-02T13:02:32.912Z,1.40
2022-11-02T13:05:14.622Z,2.10
2022-11-02T13:07:50.345Z,2.22
2022-11-02T13:10:28.232Z,1.55
2022-11-02T13:13:00.540Z,1.88
2022-11-02T13:15:31.794Z,1.70
2022-11-02T13:18:14.535Z,1.73
2022-11-02T13:20:57.701Z,1.48
2022-11-02T13:23:37.161Z,1.25
2022-11-02T13:26:57.120Z,1.30
2022-11-02T13:36:07.226Z,1.38
2022-11-02T13:38:47.118Z,1.30
2022-11-02T13:45:35.237Z,1.48
2022-11-02T13:48:14.662Z,2.00
2022-11-02T13:50:47.365Z,1.60
2022-11-02T13:53:46.296Z,1.80
2022-11-02T13:59:43.327Z,1.67
2022-11-02T14:03:18.964Z,1.60
2022-11-02T14:06:21.703Z,2.08
2022-11-02T14:09:28.108Z,1.30
2022-11-02T14:12:24.366Z,1.52
2022-11-02T14:15:23.499Z,1.80
2022-11-02T14:18:41.638Z,1.45
2022-11-02T14:21:45.908Z,1.73
2022-11-02T14:24:40.762Z,1.27
2022-11-02T14:27:22.886Z,1.60
2022-11-02T14:30:03.178Z,1.92
2022-11-02T14:39:59.765Z,1.98
2022-11-02T14:43:12.984Z,1.90
2022-11-02T14:46:16.529Z,1.77
2022-11-02T14:48:50.926Z,1.73
2022-11-02T14:51:36.921Z,1.42
2022-11-02T14:54:24.707Z,1.70
2022-11-02T14:57:46.044Z,1.75
2022-11-02T15:00:22.031Z,1.38
2022-11-02T15:03:01.002Z,1.90
2022-11-02T15:05:45.995Z,1.73
2022-11-02T15:08:36.915Z,1.85
2022-11-02T15:11:51.564Z,2.17
2022-11-02T15:14:56.095Z,1.80
2022-11-02T15:17:47.680Z,1.52
2022-11-02T15:20:47.759Z,1.70
2022-11-02T15:26:18.178Z,2.22
2022-11-02T15:29:10.646Z,1.55
2022-11-02T15:31:50.215Z,2.08
2022-11-02T15:34:45.143Z,1.92
2022-11-02T15:37:37.343Z,1.77
2022-11-02T15:40:49.481Z,1.67
2022-11-02T15:44:15.578Z,2.08
2022-11-02T15:47:16.720Z,1.95
2022-11-02T15:51:13.836Z,2.40
2022-11-02T15:54:30.281Z,1.98
2022-11-02T15:57:48.706Z,2.30
2022-11-02T16:04:29.087Z,1.90
2022-11-02T16:07:16.459Z,3.30
2022-11-02T16:10:01.131Z,3.70
2022-11-02T16:13:00.533Z,3.20
2022-11-02T16:15:52.949Z,4.00
2022-11-02T16:19:11.416Z,3.13
2022-11-02T16:22:01.114Z,2.78
2022-11-02T16:25:33.868Z,2.50
2022-11-02T16:29:04.434Z,2.13
2022-11-02T16:31:55.095Z,1.73
2022-11-02T16:34:42.450Z,2.17
2022-11-02T16:37:36.275Z,2.65
2022-11-02T16:40:15.891Z,2.05
2022-11-02T16:42:53.633Z,2.50
2022-11-02T16:45:43.155Z,2.15
2022-11-02T16:48:25.923Z,2.15
2022-11-02T16:51:22.710Z,2.22
2022-11-02T16:54:29.349Z,2.60
2022-11-02T17:04:14.500Z,2.65
2022-11-02T17:10:27.595Z,2.67
2022-11-02T17:13:24.539Z,2.53
2022-11-02T17:25:31.344Z,2.88
2022-11-02T17:29:15.109Z,2.72
2022-11-02T17:35:29.564Z,3.95
2022-11-02T17:38:19.100Z,4.15
2022-11-02T17:45:52.877Z,5.35
2022-11-02T17:48:44.097Z,5.50
2022-11-02T17:54:00.606Z,4.57
2022-11-02T17:56:42.225Z,4.38
2022-11-02T18:03:58.000Z,4.25
2022-11-02T18:06:28.425Z,4.25
2022-11-02T18:09:23.159Z,4.43
2022-11-02T18:12:04.328Z,5.57
2022-11-02T18:15:03.195Z,4.95
2022-11-02T18:18:17.915Z,5.45
2022-11-02T18:22:02.657Z,4.53
2022-11-02T18:25:18.385Z,4.05
2022-11-02T18:28:11.167Z,4.75
2022-11-02T18:30:58.618Z,4.40
2022-11-02T18:36:44.998Z,3.80
2022-11-02T18:39:58.191Z,4.50
2022-11-02T18:42:47.383Z,4.53
2022-11-02T18:45:15.925Z,4.57
2022-11-02T18:47:42.836Z,4.40
2022-11-02T18:50:12.372Z,4.22
2022-11-02T18:52:39.466Z,4.18
2022-11-02T18:55:06.684Z,4.10
2022-11-02T18:57:33.332Z,3.83
2022-11-02T19:00:02.453Z,3.92
2022-11-02T19:02:29.711Z,4.40
2022-11-02T19:04:56.608Z,3.42
2022-11-02T19:07:41.887Z,4.25
2022-11-02T19:10:09.706Z,4.55
2022-11-02T19:12:36.604Z,4.60
2022-11-02T19:15:04.303Z,4.55
2022-11-02T19:17:31.431Z,4.30
2022-11-02T19:20:06.300Z,4.07
2022-11-02T19:22:35.926Z,5.43
2022-11-02T19:25:06.394Z,4.55
2022-11-02T19:27:34.367Z,4.07
2022-11-02T19:30:02.664Z,4.10
2022-11-02T19:32:32.491Z,3.95
2022-11-02T19:34:59.084Z,4.07
2022-11-02T19:37:26.060Z,3.53
2022-11-02T19:39:57.874Z,3.92
2022-11-02T19:42:29.879Z,4.00
2022-11-02T19:44:57.579Z,3.53
2022-11-02T19:47:28.261Z,3.08
2022-11-02T19:49:56.084Z,3.30
2022-11-02T19:52:25.546Z,3.15
2022-11-02T19:54:55.730Z,3.15
2022-11-02T19:57:22.390Z,3.53
2022-11-02T19:59:49.034Z,3.00
2022-11-02T20:02:18.579Z,3.13
2022-11-02T20:07:12.036Z,2.85
2022-11-02T20:09:38.589Z,3.15
2022-11-02T20:12:07.487Z,3.80
2022-11-02T20:14:36.327Z,4.15
2022-11-02T20:17:29.767Z,3.80
2022-11-02T20:19:49.472Z,3.40
2022-11-02T20:22:18.174Z,3.05
2022-11-02T20:24:44.708Z,2.75
2022-11-02T20:27:12.749Z,3.08
2022-11-02T20:29:40.518Z,3.10
2022-11-02T20:32:10.179Z,2.95
2022-11-02T20:37:05.007Z,3.70
2022-11-02T20:39:31.604Z,3.00
2022-11-02T20:41:58.143Z,4.60
2022-11-02T20:44:25.017Z,4.75
2022-11-02T20:46:53.270Z,4.35
2022-11-02T20:49:36.351Z,3.23
2022-11-02T20:52:07.979Z,3.30
2022-11-02T20:54:34.522Z,3.00
2022-11-02T20:57:01.351Z,3.03
2022-11-02T20:59:27.926Z,3.08
2022-11-02T21:01:54.571Z,2.92
2022-11-02T21:04:21.897Z,3.97
2022-11-02T21:06:51.882Z,2.85
2022-11-02T21:09:19.149Z,3.38
2022-11-02T21:12:04.446Z,4.03
2022-11-02T21:14:31.123Z,3.30
2022-11-02T21:16:57.781Z,3.13
2022-11-02T21:19:24.395Z,2.50
2022-11-02T21:21:55.104Z,3.90
2022-11-02T21:24:24.773Z,3.53
2022-11-02T21:26:51.532Z,3.45
2022-11-02T21:29:18.150Z,2.80
2022-11-02T21:31:45.306Z,2.65
2022-11-02T21:34:11.845Z,2.95
2022-11-02T21:36:40.574Z,3.00
2022-11-02T21:39:07.660Z,2.72
2022-11-02T21:41:38.349Z,2.88
2022-11-02T21:44:06.915Z,2.60
2022-11-02T21:46:33.444Z,2.75
2022-11-02T21:49:00.010Z,3.20
2022-11-02T21:51:26.809Z,2.53
2022-11-02T21:53:53.467Z,2.42
2022-11-02T21:56:22.976Z,2.95
2022-11-02T21:58:49.646Z,2.20
2022-11-02T22:01:35.080Z,2.47
2022-11-02T22:04:02.415Z,2.35
2022-11-02T22:06:31.468Z,2.33
2022-11-02T22:08:59.363Z,2.00
2022-11-02T22:11:29.233Z,2.40
2022-11-02T22:13:58.176Z,2.00
2022-11-02T22:16:36.471Z,2.45
2022-11-02T22:19:08.174Z,2.65
2022-11-02T22:21:37.872Z,2.22
2022-11-02T22:24:05.596Z,2.30
2022-11-02T22:26:34.779Z,2.30
2022-11-02T22:29:01.891Z,2.20
2022-11-02T22:31:31.586Z,2.13
2022-11-02T22:34:00.644Z,2.13
2022-11-02T22:36:29.558Z,2.83
2022-11-02T22:38:58.508Z,2.05
2022-11-02T22:41:25.756Z,2.83
2022-11-02T22:43:57.926Z,3.08
2022-11-02T22:46:26.505Z,2.35
2022-11-02T22:48:55.391Z,2.50
2022-11-02T22:51:24.804Z,2.22
2022-11-02T22:53:51.701Z,2.60
2022-11-02T22:56:20.866Z,2.58
2022-11-02T22:58:48.433Z,2.60
2022-11-02T23:01:20.985Z,2.42
2022-11-02T23:03:48.415Z,2.20
2022-11-02T23:06:16.126Z,2.65
2022-11-02T23:08:45.755Z,2.60
2022-11-02T23:14:04.179Z,2.20
2022-11-02T23:16:46.801Z,2.33
2022-11-02T23:19:30.925Z,1.83
2022-11-02T23:22:19.288Z,2.40
2022-11-02T23:25:09.807Z,2.10
2022-11-02T23:27:58.922Z,2.92
2022-11-02T23:30:49.659Z,2.25
2022-11-02T23:33:16.742Z,2.28
2022-11-02T23:36:02.301Z,2.45
2022-11-02T23:38:49.132Z,2.00
2022-11-02T23:41:16.944Z,2.00
2022-11-02T23:43:43.559Z,2.13
2022-11-02T23:46:10.405Z,2.17
2022-11-02T23:48:36.927Z,2.38
2022-11-02T23:51:22.654Z,2.00
2022-11-02T23:54:07.418Z,1.90
2022-11-02T23:56:43.433Z,3.55
2022-11-02T23:59:11.552Z,2.40
